IkaScore Players IkaScore Alliances






Support IkaScore

Please donate to
me@ikascore.com

using Skrill
Latvia Epsilon
Ikariam players: 50
AverageTotal
Kopējais punktu skaits: 23745961 1187298031
Celtnieki: 19670755 983537771
Celtniecības līmeņi: 2783 4563726
Zinātnieki: 767128 1258089899
Pētniecības līmenis: 283 464160
Ģenerāļi: 11179 18333278
Zelts: 35951493 1797574626
Uzbrukuma punkti: 8182 13418896
Aizsardzības punkti: 10433 17109379
Tirdzniecības statistika: 4569 7493448
Resursi: 14783292 739164599
ziedot: 383435 628833728
Score vulnerability: 174605 286352131
Gold vulnerability: 170992 280427223
Population: 16738 27449522
Donations to score: 328591 538889577

Digg! Delicious! IkaScore homepage
Alliances - Kopējais punktu skaits
  per page  
Rank Alliance Score Type Average Score Updated
1 LAT Kopējais punktu skaits 9202895 1076738680 28/11 01:03
2 EŽI Kopējais punktu skaits 45501731 637024236 28/11 01:03
3 KidLV Kopējais punktu skaits 11054136 552706814 28/11 01:03
4 NEZIN Kopējais punktu skaits 8550575 547236793 28/11 01:03
5 NRWL Kopējais punktu skaits 9288600 436564208 28/11 01:03
6 P-Z Kopējais punktu skaits 8975040 403876815 28/11 01:03
7 ZOOM Kopējais punktu skaits 8900042 373801767 28/11 01:03
8 K15R Kopējais punktu skaits 15975422 207680491 28/11 01:03
9 DESA Kopējais punktu skaits 6723242 168081039 28/11 01:03
10 SOG Kopējais punktu skaits 11137333 167059993 28/11 01:03
11 TRVIP Kopējais punktu skaits 5998450 155959688 28/11 01:03
12 BNK Kopējais punktu skaits 1647516 153218987 28/11 01:03
13 -FX- Kopējais punktu skaits 8741468 131122024 28/11 01:03
14 LVS- Kopējais punktu skaits 11727159 128998750 28/11 01:03
15 PO- Kopējais punktu skaits 7463996 97031953 28/11 01:03
16 SPARS Kopējais punktu skaits 11160345 89282762 28/11 01:03
17 _LK_ Kopējais punktu skaits 6840024 88920310 28/11 01:03
18 -AHA- Kopējais punktu skaits 5082050 86394851 28/11 01:03
19 KF P Kopējais punktu skaits 38542269 77084537 28/11 01:03
20 -F-2 Kopējais punktu skaits 9163251 64142760 28/11 01:03
21 RedS Kopējais punktu skaits 12761563 63807813 28/11 01:03
22 KuP Kopējais punktu skaits 3959950 55439298 28/11 01:03
23 new Kopējais punktu skaits 4974244 54716682 28/11 01:03
24 L V K Kopējais punktu skaits 2937841 44067621 28/11 01:03
25 B_S Kopējais punktu skaits 4614824 36918590 28/11 01:03
26 Z P Kopējais punktu skaits 17782144 35564288 28/11 01:03
27 LVO Kopējais punktu skaits 6950287 34751434 28/11 01:03
28 Kat Kopējais punktu skaits 14786877 29573753 28/11 01:03
29 -LV- Kopējais punktu skaits 4524924 27149545 28/11 01:03
30 DRG Kopējais punktu skaits 1650508 24757614 28/11 01:03
31 123e Kopējais punktu skaits 21429072 21429072 28/11 01:03
32 TAG Kopējais punktu skaits 531694 19140974 28/11 01:03
33 D-H Kopējais punktu skaits 17559731 17559731 28/11 01:03
34 Andre Kopējais punktu skaits 16491329 16491329 28/11 01:03
35 FIRE Kopējais punktu skaits 5214343 15643030 28/11 01:03
36 LVL Kopējais punktu skaits 2705920 13529601 28/11 01:03
37 BrivL Kopējais punktu skaits 2543809 12719044 28/11 01:03
38 LLS Kopējais punktu skaits 1199563 11995633 28/11 01:03
39 NEZLN Kopējais punktu skaits 1210183 10891643 28/11 01:03
40 B-I-A Kopējais punktu skaits 1692058 10152347 28/11 01:03
41 TR-V Kopējais punktu skaits 4982072 9964143 28/11 01:03
42 -KC- Kopējais punktu skaits 9177948 9177948 28/11 01:03
43 _MPK_ Kopējais punktu skaits 8943304 8943304 28/11 01:03
44 Ku-kū Kopējais punktu skaits 8856525 8856525 28/11 01:03
45 -re- Kopējais punktu skaits 8807122 8807122 28/11 01:03
46 V-V Kopējais punktu skaits 8694104 8694104 28/11 01:03
47 AGs Kopējais punktu skaits 4221873 8443745 28/11 01:03
48 ENDE Kopējais punktu skaits 111400 6126995 28/11 01:03
49 -NV- Kopējais punktu skaits 5571252 5571252 28/11 01:03
50 oWo Kopējais punktu skaits 652669 5221354 28/11 01:03
51 P-P Kopējais punktu skaits 285158 5132851 28/11 01:03
52 legia Kopējais punktu skaits 4946896 4946896 28/11 01:03
53 B_N Kopējais punktu skaits 596053 4768425 28/11 01:03
54 ILG Kopējais punktu skaits 4673951 4673951 28/11 01:03
55 Bot Kopējais punktu skaits 553813 4430502 28/11 01:03
56 BEK Kopējais punktu skaits 3528061 3528061 28/11 01:03
57 DRAG Kopējais punktu skaits 1154869 3464606 28/11 01:03
58 S-M Kopējais punktu skaits 244045 3172579 28/11 01:03
59 ZAZ Kopējais punktu skaits 2577620 2577620 28/11 01:03
60 Saw Kopējais punktu skaits 2427150 2427150 28/11 01:03
61 -PM- Kopējais punktu skaits 1108462 2216924 28/11 01:03
62 ROKO Kopējais punktu skaits 2026032 2026032 28/11 01:03
63 321 Kopējais punktu skaits 2024809 2024809 28/11 01:03
64 -CR- Kopējais punktu skaits 820053 1640106 28/11 01:03
65 KKK Kopējais punktu skaits 166779 1167450 28/11 01:03
66 TRp Kopējais punktu skaits 94154 847388 28/11 01:03
67 MCJS Kopējais punktu skaits 383215 766430 28/11 01:03
68 PiR Kopējais punktu skaits 753190 753190 28/11 01:03
69 KVL Kopējais punktu skaits 705824 705824 28/11 01:03
70 ODA Kopējais punktu skaits 694264 694264 28/11 01:03
71 TSD Kopējais punktu skaits 173500 520501 28/11 01:03
72 XII Kopējais punktu skaits 435252 435252 28/11 01:03
73 EGY Kopējais punktu skaits 353686 353686 28/11 01:03
74 Cip Kopējais punktu skaits 307240 307240 28/11 01:03
75 LVD Kopējais punktu skaits 251227 251227 28/11 01:03
76 T-K Kopējais punktu skaits 95553 191106 28/11 01:03
77 D-M Kopējais punktu skaits 191087 191087 28/11 01:03
78 Troja Kopējais punktu skaits 72399 144797 28/11 01:03
79 uwu Kopējais punktu skaits 103130 103130 28/11 01:03
80 -pps- Kopējais punktu skaits 20470 102351 28/11 01:03
81 r93vs Kopējais punktu skaits 24764 99056 28/11 01:03
82 SWS Kopējais punktu skaits 25682 25682 28/11 01:03
83 BMW Kopējais punktu skaits 8029 8029 28/11 01:03
84 KPI Kopējais punktu skaits 7036 7036 28/11 01:03
  per page  

Copyright © 2010 IkaScore.com All Rights Reserved | Disclaimer